createdAt,value
2018-10-21T00:01:28.087Z,13.90
2018-10-21T00:03:56.405Z,14.73
2018-10-21T00:06:24.789Z,14.63
2018-10-21T00:08:53.137Z,11.57
2018-10-21T00:11:21.440Z,12.93
2018-10-21T00:13:49.806Z,13.37
2018-10-21T00:16:18.215Z,20.23
2018-10-21T00:18:46.573Z,13.63
2018-10-21T00:21:15.148Z,17.93
2018-10-21T00:23:44.471Z,18.67
2018-10-21T00:26:13.597Z,15.10
2018-10-21T00:28:41.910Z,15.70
2018-10-21T00:31:10.309Z,20.77
2018-10-21T00:33:38.582Z,17.73
2018-10-21T00:36:07.957Z,16.47
2018-10-21T00:38:36.314Z,16.93
2018-10-21T00:41:04.800Z,17.77
2018-10-21T00:43:33.175Z,14.97
2018-10-21T00:46:01.526Z,13.60
2018-10-21T00:48:29.872Z,15.57
2018-10-21T00:50:58.269Z,18.43
2018-10-21T00:53:26.613Z,17.70
2018-10-21T00:55:55.031Z,13.93
2018-10-21T00:58:23.302Z,15.43
2018-10-21T01:00:51.634Z,14.27
2018-10-21T01:03:19.918Z,13.57
2018-10-21T01:05:48.224Z,13.40
2018-10-21T01:08:16.531Z,18.43
2018-10-21T01:10:44.864Z,15.30
2018-10-21T01:13:13.218Z,14.63
2018-10-21T01:15:41.561Z,15.73
2018-10-21T01:18:09.929Z,16.13
2018-10-21T01:20:38.277Z,18.73
2018-10-21T01:23:06.585Z,17.27
2018-10-21T01:25:34.957Z,19.20
2018-10-21T01:28:03.266Z,21.83
2018-10-21T01:30:31.574Z,21.27
2018-10-21T01:32:59.875Z,20.70
2018-10-21T01:35:28.149Z,20.87
2018-10-21T01:37:56.519Z,23.93
2018-10-21T01:40:34.199Z,20.03
2018-10-21T01:43:03.002Z,23.87
2018-10-21T01:45:31.300Z,22.07
2018-10-21T01:48:00.768Z,20.40
2018-10-21T01:50:29.067Z,19.27
2018-10-21T01:52:58.730Z,18.00
2018-10-21T01:55:27.111Z,24.97
2018-10-21T01:57:56.422Z,18.13
2018-10-21T02:00:25.412Z,19.37
2018-10-21T02:02:54.197Z,19.23
2018-10-21T02:05:23.012Z,18.30
2018-10-21T02:07:52.147Z,19.10
2018-10-21T02:10:20.447Z,22.23
2018-10-21T02:12:48.869Z,18.90
2018-10-21T02:15:17.181Z,21.03
2018-10-21T02:17:45.457Z,22.67
2018-10-21T02:20:14.631Z,25.10
2018-10-21T02:22:43.683Z,25.10
2018-10-21T02:25:12.286Z,25.67
2018-10-21T02:27:41.191Z,21.00
2018-10-21T02:30:12.508Z,21.97
2018-10-21T02:32:40.900Z,21.33
2018-10-21T02:35:10.237Z,22.87
2018-10-21T02:37:39.285Z,27.50
2018-10-21T02:40:17.876Z,26.60
2018-10-21T02:42:46.245Z,28.43
2018-10-21T02:45:14.705Z,31.60
2018-10-21T02:47:43.067Z,33.20
2018-10-21T02:50:11.385Z,36.27
2018-10-21T02:52:39.664Z,32.97
2018-10-21T02:55:08.067Z,30.53
2018-10-21T02:57:36.451Z,34.07
2018-10-21T03:00:04.879Z,32.90
2018-10-21T03:02:33.251Z,30.50
2018-10-21T03:05:01.514Z,31.13
2018-10-21T03:07:29.810Z,33.80
2018-10-21T03:09:58.115Z,28.67
2018-10-21T03:12:26.448Z,34.63
2018-10-21T03:14:54.874Z,34.27
2018-10-21T03:17:23.175Z,30.67
2018-10-21T03:19:51.841Z,29.73
2018-10-21T03:22:20.285Z,33.07
2018-10-21T03:24:48.616Z,31.57
2018-10-21T03:27:17.015Z,37.63
2018-10-21T03:29:45.368Z,36.10
2018-10-21T03:32:13.763Z,33.10
2018-10-21T03:34:42.133Z,34.17
2018-10-21T03:37:10.464Z,31.07
2018-10-21T03:39:38.790Z,34.53
2018-10-21T03:42:07.152Z,34.07
2018-10-21T03:44:35.477Z,29.57
2018-10-21T03:47:03.846Z,31.07
2018-10-21T03:49:32.121Z,33.40
2018-10-21T03:52:00.476Z,30.87
2018-10-21T03:54:28.969Z,37.33
2018-10-21T03:56:57.279Z,30.40
2018-10-21T03:59:25.560Z,30.47
2018-10-21T04:01:53.906Z,30.10
2018-10-21T04:04:22.295Z,27.80
2018-10-21T04:06:50.623Z,31.27
2018-10-21T04:09:18.933Z,30.70
2018-10-21T04:11:47.274Z,28.53
2018-10-21T04:14:15.553Z,35.07
2018-10-21T04:16:43.930Z,34.00
2018-10-21T04:19:12.201Z,34.03
2018-10-21T04:21:40.471Z,33.20
2018-10-21T04:24:08.777Z,31.23
2018-10-21T04:26:37.153Z,33.47
2018-10-21T04:29:05.483Z,34.23
2018-10-21T04:31:33.761Z,30.43
2018-10-21T04:34:02.164Z,30.37
2018-10-21T04:36:31.646Z,30.07
2018-10-21T04:39:34.372Z,30.07
2018-10-21T04:42:02.665Z,28.13
2018-10-21T04:44:30.987Z,26.40
2018-10-21T04:46:59.440Z,25.70
2018-10-21T04:49:27.659Z,28.53
2018-10-21T04:51:55.959Z,27.77
2018-10-21T04:54:24.282Z,29.63
2018-10-21T04:56:52.591Z,26.30
2018-10-21T04:59:20.894Z,27.23
2018-10-21T05:01:49.210Z,25.90
2018-10-21T05:04:17.598Z,24.07
2018-10-21T05:06:45.798Z,26.00
2018-10-21T05:09:14.157Z,25.00
2018-10-21T05:11:42.465Z,25.97
2018-10-21T05:14:10.745Z,31.23
2018-10-21T05:16:39.106Z,25.63
2018-10-21T05:19:07.394Z,27.77
2018-10-21T05:21:35.753Z,28.13
2018-10-21T05:24:04.147Z,26.47
2018-10-21T05:26:32.510Z,30.43
2018-10-21T05:29:00.857Z,26.70
2018-10-21T05:31:29.373Z,28.13
2018-10-21T05:33:58.388Z,26.63
2018-10-21T05:36:26.695Z,27.17
2018-10-21T05:38:55.117Z,29.27
2018-10-21T05:41:23.455Z,26.87
2018-10-21T05:43:51.814Z,30.93
2018-10-21T05:46:31.245Z,29.97
2018-10-21T05:48:59.649Z,28.40
2018-10-21T05:51:27.929Z,27.73
2018-10-21T05:53:56.219Z,29.97
2018-10-21T05:56:24.810Z,31.97
2018-10-21T05:58:53.192Z,27.57
2018-10-21T06:01:21.565Z,27.90
2018-10-21T06:03:49.944Z,31.23
2018-10-21T06:06:18.291Z,28.13
2018-10-21T06:08:46.668Z,29.20
2018-10-21T06:11:14.979Z,32.70
2018-10-21T06:13:43.241Z,28.03
2018-10-21T06:16:11.525Z,31.40
2018-10-21T06:18:39.981Z,30.93
2018-10-21T06:21:08.387Z,33.40
2018-10-21T06:23:36.775Z,30.00
2018-10-21T06:26:05.259Z,29.80
2018-10-21T06:28:33.769Z,28.97
2018-10-21T06:31:02.118Z,32.37
2018-10-21T06:33:30.490Z,29.73
2018-10-21T06:35:59.003Z,29.67
2018-10-21T06:38:27.460Z,29.33
2018-10-21T06:40:55.826Z,29.87
2018-10-21T06:43:24.108Z,27.27
2018-10-21T06:45:52.532Z,29.43
2018-10-21T06:48:20.883Z,28.00
2018-10-21T06:50:49.183Z,29.10
2018-10-21T06:53:17.577Z,28.23
2018-10-21T06:55:45.929Z,28.77
2018-10-21T06:58:14.267Z,29.33
2018-10-21T07:00:42.683Z,33.23
2018-10-21T07:03:11.031Z,31.30
2018-10-21T07:06:17.273Z,30.37
2018-10-21T07:08:46.245Z,32.47
2018-10-21T07:11:14.844Z,29.90
2018-10-21T07:13:43.419Z,30.63
2018-10-21T07:16:12.187Z,38.23
2018-10-21T07:18:41.092Z,34.57
2018-10-21T07:21:09.433Z,43.43
2018-10-21T07:23:37.925Z,42.13
2018-10-21T07:26:06.605Z,40.33
2018-10-21T07:28:35.088Z,46.67
2018-10-21T07:31:03.615Z,50.00
2018-10-21T07:33:31.933Z,45.43
2018-10-21T07:36:00.361Z,44.07
2018-10-21T07:38:28.671Z,42.37
2018-10-21T07:40:57.254Z,43.87
2018-10-21T07:43:25.801Z,46.23
2018-10-21T07:45:54.165Z,42.83
2018-10-21T07:48:22.530Z,45.33
2018-10-21T07:50:50.873Z,50.77
2018-10-21T07:53:19.171Z,50.77
2018-10-21T07:55:47.506Z,44.30
2018-10-21T07:58:16.015Z,43.97
2018-10-21T08:00:44.390Z,48.53
2018-10-21T08:03:12.818Z,43.90
2018-10-21T08:05:52.427Z,45.20
2018-10-21T08:08:24.871Z,49.17
2018-10-21T08:10:53.238Z,48.73
2018-10-21T08:13:23.929Z,49.37
2018-10-21T08:15:52.317Z,51.23
2018-10-21T08:18:20.646Z,49.53
2018-10-21T08:20:49.898Z,48.87
2018-10-21T08:23:19.019Z,52.70
2018-10-21T08:25:48.820Z,52.37
2018-10-21T08:28:17.246Z,50.67
2018-10-21T08:30:45.629Z,48.73
2018-10-21T08:33:14.071Z,47.57
2018-10-21T08:35:42.387Z,47.60
2018-10-21T08:38:10.788Z,51.17
2018-10-21T08:40:39.213Z,52.40
2018-10-21T08:43:07.606Z,54.70
2018-10-21T08:45:36.029Z,53.93
2018-10-21T08:48:04.420Z,55.90
2018-10-21T08:50:33.281Z,58.63
2018-10-21T08:53:01.654Z,55.20
2018-10-21T08:55:30.018Z,54.80
2018-10-21T08:57:58.362Z,54.27
2018-10-21T09:00:26.858Z,53.63
2018-10-21T09:02:55.203Z,61.60
2018-10-21T09:05:23.512Z,65.17
2018-10-21T09:07:51.852Z,59.10
2018-10-21T09:10:20.423Z,61.03
2018-10-21T09:12:48.608Z,59.67
2018-10-21T09:15:18.572Z,52.47
2018-10-21T09:17:47.037Z,54.40
2018-10-21T09:20:17.560Z,55.87
2018-10-21T09:22:46.048Z,54.53
2018-10-21T09:25:14.934Z,51.20
2018-10-21T09:27:44.052Z,59.50
2018-10-21T09:30:14.287Z,55.60
2018-10-21T09:32:42.626Z,55.73
2018-10-21T09:35:14.124Z,55.10
2018-10-21T09:37:42.988Z,52.40
2018-10-21T09:40:14.829Z,53.07
2018-10-21T09:42:43.477Z,53.87
2018-10-21T09:45:13.851Z,56.10
2018-10-21T09:47:42.607Z,51.20
2018-10-21T09:50:11.227Z,55.77
2018-10-21T09:52:39.727Z,50.70
2018-10-21T09:55:13.888Z,50.70
2018-10-21T09:57:42.217Z,54.37
2018-10-21T10:00:10.675Z,55.10
2018-10-21T10:02:44.510Z,51.37
2018-10-21T10:05:13.054Z,47.23
2018-10-21T10:07:41.376Z,45.93
2018-10-21T10:10:10.995Z,52.33
2018-10-21T10:12:39.547Z,51.50
2018-10-21T10:15:08.753Z,47.93
2018-10-21T10:17:37.150Z,50.10
2018-10-21T10:20:06.488Z,45.60
2018-10-21T10:22:34.913Z,47.70
2018-10-21T10:25:03.462Z,51.10
2018-10-21T10:27:31.782Z,46.83
2018-10-21T10:30:00.274Z,47.30
2018-10-21T10:32:28.755Z,51.03
2018-10-21T10:34:57.082Z,45.67
2018-10-21T10:37:25.533Z,47.87
2018-10-21T10:39:53.900Z,49.20
2018-10-21T10:42:22.372Z,46.70
2018-10-21T10:44:50.669Z,46.10
2018-10-21T10:47:19.083Z,47.67
2018-10-21T10:49:47.614Z,49.53
2018-10-21T10:52:16.198Z,48.00
2018-10-21T10:54:44.560Z,45.60
2018-10-21T10:57:12.884Z,49.37
2018-10-21T10:59:41.310Z,46.27
2018-10-21T11:02:09.684Z,49.23
2018-10-21T11:04:38.075Z,45.27
2018-10-21T11:07:06.959Z,48.03
2018-10-21T11:09:35.472Z,49.87
2018-10-21T11:12:03.884Z,48.53
2018-10-21T11:14:32.315Z,48.00
2018-10-21T11:17:00.706Z,44.77
2018-10-21T11:19:29.114Z,44.00
2018-10-21T11:21:57.453Z,42.07
2018-10-21T11:24:25.837Z,45.67
2018-10-21T11:26:54.375Z,44.43
2018-10-21T11:29:22.787Z,42.93
2018-10-21T11:31:51.263Z,46.57
2018-10-21T11:34:19.761Z,48.73
2018-10-21T11:36:48.301Z,42.77
2018-10-21T11:39:16.589Z,40.20
2018-10-21T11:41:45.018Z,42.83
2018-10-21T11:44:13.393Z,44.47
2018-10-21T11:46:42.104Z,40.87
2018-10-21T11:49:10.464Z,45.97
2018-10-21T11:51:38.794Z,42.40
2018-10-21T11:54:07.191Z,43.03
2018-10-21T11:56:37.659Z,42.80
2018-10-21T11:59:07.304Z,42.40
2018-10-21T12:01:35.626Z,39.93
2018-10-21T12:04:04.144Z,38.50
2018-10-21T12:06:32.575Z,40.13
2018-10-21T12:09:00.898Z,40.00
2018-10-21T12:11:29.303Z,39.83
2018-10-21T12:13:57.665Z,37.80
2018-10-21T12:16:26.093Z,42.50
2018-10-21T12:18:54.432Z,38.13
2018-10-21T12:21:22.865Z,36.03
2018-10-21T12:23:51.307Z,36.73
2018-10-21T12:26:19.650Z,34.97
2018-10-21T12:28:48.031Z,33.50
2018-10-21T12:31:16.428Z,33.37
2018-10-21T12:33:46.733Z,31.77
2018-10-21T12:36:16.258Z,29.87
2018-10-21T12:38:44.694Z,30.53
2018-10-21T12:41:13.507Z,29.23
2018-10-21T12:43:42.472Z,29.13
2018-10-21T12:46:11.172Z,28.27
2018-10-21T12:48:39.486Z,28.13
2018-10-21T12:51:08.106Z,27.00
2018-10-21T12:53:36.691Z,27.87
2018-10-21T12:56:05.262Z,27.17
2018-10-21T12:58:33.651Z,29.53
2018-10-21T13:01:02.140Z,29.77
2018-10-21T13:03:30.474Z,26.17
2018-10-21T13:05:58.960Z,26.33
2018-10-21T13:08:27.350Z,27.93
2018-10-21T13:10:55.669Z,26.07
2018-10-21T13:13:24.446Z,24.70
2018-10-21T13:15:52.798Z,27.30
2018-10-21T13:18:21.229Z,26.77
2018-10-21T13:20:49.921Z,23.87
2018-10-21T13:23:18.959Z,24.80
2018-10-21T13:25:47.578Z,24.40
2018-10-21T13:28:16.080Z,28.00
2018-10-21T13:30:44.460Z,29.60
2018-10-21T13:33:12.789Z,28.17
2018-10-21T13:35:41.330Z,27.70
2018-10-21T13:38:09.934Z,28.03
2018-10-21T13:40:38.319Z,25.83
2018-10-21T13:43:07.118Z,25.23
2018-10-21T13:45:35.640Z,25.50
2018-10-21T13:48:04.124Z,23.93
2018-10-21T13:50:32.483Z,22.97
2018-10-21T13:53:00.817Z,23.33
2018-10-21T13:55:29.198Z,25.33
2018-10-21T13:57:57.708Z,22.17
2018-10-21T14:00:26.160Z,23.80
2018-10-21T14:02:54.480Z,25.73
2018-10-21T14:05:23.013Z,23.83
2018-10-21T14:07:51.462Z,25.37
2018-10-21T14:10:20.087Z,24.60
2018-10-21T14:12:48.479Z,23.57
2018-10-21T14:15:16.901Z,22.57
2018-10-21T14:17:46.365Z,23.53
2018-10-21T14:20:14.769Z,22.43
2018-10-21T14:22:43.357Z,22.87
2018-10-21T14:25:11.898Z,21.77
2018-10-21T14:27:40.530Z,20.40
2018-10-21T14:30:10.149Z,19.63
2018-10-21T14:32:38.939Z,20.33
2018-10-21T14:35:09.221Z,18.97
2018-10-21T14:37:38.067Z,20.53
2018-10-21T14:40:08.218Z,18.77
2018-10-21T14:42:36.597Z,20.03
2018-10-21T14:45:06.008Z,19.97
2018-10-21T14:47:34.385Z,22.20
2018-10-21T14:50:02.823Z,21.17
2018-10-21T14:52:31.282Z,20.90
2018-10-21T14:54:59.683Z,20.07
2018-10-21T14:57:28.147Z,22.77
2018-10-21T14:59:56.514Z,20.77
2018-10-21T15:02:24.861Z,19.77
2018-10-21T15:04:53.204Z,16.70
2018-10-21T15:07:21.785Z,16.17
2018-10-21T15:09:50.285Z,19.37
2018-10-21T15:12:18.721Z,18.23
2018-10-21T15:14:47.095Z,16.17
2018-10-21T15:17:15.589Z,14.57
2018-10-21T15:19:44.142Z,15.20
2018-10-21T15:22:12.609Z,16.53
2018-10-21T15:24:40.883Z,17.87
2018-10-21T15:27:09.213Z,17.57
2018-10-21T15:29:37.577Z,17.40
2018-10-21T15:32:06.189Z,17.63
2018-10-21T15:34:34.716Z,16.40
2018-10-21T15:37:03.756Z,15.33
2018-10-21T15:39:32.276Z,15.67
2018-10-21T15:42:00.654Z,14.80
2018-10-21T15:44:29.013Z,14.57
2018-10-21T15:46:57.425Z,18.23
2018-10-21T15:49:25.888Z,18.60
2018-10-21T15:51:54.580Z,16.33
2018-10-21T15:54:22.952Z,15.97
2018-10-21T15:56:51.615Z,17.47
2018-10-21T15:59:20.629Z,17.70
2018-10-21T16:01:49.125Z,19.27
2018-10-21T16:04:17.556Z,18.67
2018-10-21T16:06:46.219Z,23.13
2018-10-21T16:09:14.610Z,19.93
2018-10-21T16:11:43.159Z,20.30
2018-10-21T16:14:11.717Z,21.50
2018-10-21T16:16:40.138Z,21.33
2018-10-21T16:19:08.828Z,21.40
2018-10-21T16:21:42.873Z,21.67
2018-10-21T16:24:11.360Z,21.30
2018-10-21T16:26:39.765Z,24.83
2018-10-21T16:29:08.402Z,25.13
2018-10-21T16:31:36.792Z,23.47
2018-10-21T16:34:05.580Z,24.80
2018-10-21T16:36:34.073Z,26.50
2018-10-21T16:39:02.710Z,23.17
2018-10-21T16:41:33.411Z,26.57
2018-10-21T16:44:02.193Z,22.90
2018-10-21T16:46:30.561Z,26.93
2018-10-21T16:48:59.050Z,26.17
2018-10-21T16:51:27.550Z,25.73
2018-10-21T16:53:56.050Z,25.53
2018-10-21T16:56:24.427Z,26.53
2018-10-21T16:58:52.806Z,27.40
2018-10-21T17:01:21.243Z,27.47
2018-10-21T17:03:50.015Z,28.43
2018-10-21T17:06:18.625Z,26.93
2018-10-21T17:08:47.328Z,28.87
2018-10-21T17:11:16.656Z,25.93
2018-10-21T17:13:45.612Z,27.60
2018-10-21T17:16:14.050Z,27.70
2018-10-21T17:18:42.751Z,34.03
2018-10-21T17:21:11.552Z,27.27
2018-10-21T17:23:40.202Z,27.80
2018-10-21T17:26:09.500Z,25.40
2018-10-21T17:28:38.535Z,26.87
2018-10-21T17:31:07.343Z,28.43
2018-10-21T17:33:36.480Z,26.37
2018-10-21T17:36:05.516Z,26.03
2018-10-21T17:38:34.364Z,28.63
2018-10-21T17:41:03.238Z,28.37
2018-10-21T17:43:32.609Z,26.10
2018-10-21T17:46:02.182Z,25.07
2018-10-21T17:48:31.098Z,24.53
2018-10-21T17:51:00.104Z,28.00
2018-10-21T17:53:28.877Z,34.03
2018-10-21T17:55:57.575Z,25.57
2018-10-21T17:58:26.467Z,29.27
2018-10-21T18:00:55.047Z,25.47
2018-10-21T18:03:23.772Z,26.67
2018-10-21T18:05:52.312Z,25.10
2018-10-21T18:08:21.927Z,22.83
2018-10-21T18:10:50.792Z,21.67
2018-10-21T18:13:20.542Z,24.60
2018-10-21T18:15:49.538Z,22.67
2018-10-21T18:18:18.467Z,24.67
2018-10-21T18:20:47.576Z,20.17
2018-10-21T18:23:16.338Z,20.37
2018-10-21T18:25:45.133Z,20.43
2018-10-21T18:28:14.336Z,18.97
2018-10-21T18:30:43.404Z,17.87
2018-10-21T18:33:12.164Z,20.00
2018-10-21T18:35:40.874Z,18.50
2018-10-21T18:38:09.840Z,18.57
2018-10-21T18:40:39.376Z,19.63
2018-10-21T18:43:08.487Z,16.40
2018-10-21T18:45:37.261Z,16.57
2018-10-21T18:48:06.203Z,14.87
2018-10-21T18:50:35.230Z,16.30
2018-10-21T18:53:04.110Z,14.93
2018-10-21T18:55:33.244Z,14.50
2018-10-21T18:58:02.455Z,14.17
2018-10-21T19:00:31.506Z,16.13
2018-10-21T19:03:00.990Z,15.57
2018-10-21T19:05:29.768Z,16.67
2018-10-21T19:07:59.270Z,16.60
2018-10-21T19:10:30.122Z,16.07
2018-10-21T19:13:00.053Z,19.57
2018-10-21T19:15:29.121Z,18.67
2018-10-21T19:17:58.588Z,14.27
2018-10-21T19:20:28.361Z,14.80
2018-10-21T19:22:59.041Z,14.90
2018-10-21T19:25:28.504Z,15.47
2018-10-21T19:27:58.292Z,15.47
2018-10-21T19:30:28.009Z,14.60
2018-10-21T19:32:57.778Z,14.57
2018-10-21T19:35:27.299Z,13.37
2018-10-21T19:37:56.202Z,15.77
2018-10-21T19:40:25.461Z,13.33
2018-10-21T19:42:55.801Z,15.07
2018-10-21T19:45:25.055Z,13.57
2018-10-21T19:47:54.488Z,12.90
2018-10-21T19:50:24.465Z,12.17
2018-10-21T19:52:53.913Z,13.77
2018-10-21T19:55:24.648Z,12.53
2018-10-21T19:57:54.001Z,13.50
2018-10-21T20:00:23.760Z,15.00
2018-10-21T20:02:53.779Z,15.10
2018-10-21T20:05:23.533Z,13.10
2018-10-21T20:07:53.449Z,12.93
2018-10-21T20:10:23.683Z,12.90
2018-10-21T20:12:53.254Z,12.80
2018-10-21T20:15:22.581Z,18.50
2018-10-21T20:17:52.417Z,13.30
2018-10-21T20:20:21.842Z,13.53
2018-10-21T20:22:50.721Z,13.90
2018-10-21T20:25:20.612Z,13.37
2018-10-21T20:27:49.800Z,13.20
2018-10-21T20:30:19.317Z,13.03
2018-10-21T20:32:48.443Z,14.87
2018-10-21T20:35:18.080Z,15.60
2018-10-21T20:37:47.551Z,15.23
2018-10-21T20:40:16.616Z,12.73
2018-10-21T20:42:45.468Z,11.87
2018-10-21T20:45:14.745Z,13.40
2018-10-21T20:47:44.215Z,12.13
2018-10-21T20:50:13.422Z,14.30
2018-10-21T20:52:42.882Z,13.83
2018-10-21T20:55:11.780Z,15.00
2018-10-21T20:57:40.681Z,17.13
2018-10-21T21:00:09.773Z,13.53
2018-10-21T21:02:38.561Z,15.43
2018-10-21T21:05:10.210Z,14.83
2018-10-21T21:07:39.295Z,13.10
2018-10-21T21:10:08.853Z,16.83
2018-10-21T21:12:37.740Z,17.17
2018-10-21T21:15:07.186Z,14.87
2018-10-21T21:17:35.849Z,14.73
2018-10-21T21:20:04.258Z,14.87
2018-10-21T21:22:32.694Z,17.87
2018-10-21T21:25:01.200Z,15.10
2018-10-21T21:27:29.571Z,15.70
2018-10-21T21:29:58.716Z,14.37
2018-10-21T21:32:27.096Z,15.73
2018-10-21T21:34:55.629Z,15.57
2018-10-21T21:37:23.967Z,16.13
2018-10-21T21:39:52.399Z,14.77
2018-10-21T21:42:20.881Z,19.23
2018-10-21T21:44:49.241Z,17.63
2018-10-21T21:47:17.563Z,19.30
2018-10-21T21:49:46.438Z,18.97
2018-10-21T21:52:14.812Z,20.10
2018-10-21T21:54:43.197Z,18.47
2018-10-21T21:57:11.498Z,19.57
2018-10-21T21:59:39.957Z,24.60
2018-10-21T22:02:08.541Z,20.20
2018-10-21T22:04:36.850Z,21.63
2018-10-21T22:07:05.663Z,19.57
2018-10-21T22:09:34.510Z,21.07
2018-10-21T22:12:02.806Z,19.83
2018-10-21T22:14:31.143Z,24.50
2018-10-21T22:16:59.561Z,19.13
2018-10-21T22:19:27.981Z,20.57
2018-10-21T22:21:56.315Z,23.40
2018-10-21T22:24:24.856Z,21.90
2018-10-21T22:26:53.197Z,23.20
2018-10-21T22:29:21.558Z,20.60
2018-10-21T22:31:50.082Z,22.43
2018-10-21T22:34:18.961Z,25.90
2018-10-21T22:36:47.316Z,23.43
2018-10-21T22:39:15.720Z,25.33
2018-10-21T22:41:44.183Z,25.37
2018-10-21T22:44:12.590Z,23.57
2018-10-21T22:46:41.051Z,26.50
2018-10-21T22:49:10.543Z,25.23
2018-10-21T22:51:38.870Z,23.13
2018-10-21T22:54:07.325Z,23.57
2018-10-21T22:56:35.634Z,24.13
2018-10-21T22:59:04.032Z,26.97
2018-10-21T23:01:32.372Z,25.70
2018-10-21T23:04:00.672Z,26.83
2018-10-21T23:06:29.014Z,28.33
2018-10-21T23:08:57.340Z,26.47
2018-10-21T23:11:25.745Z,25.53
2018-10-21T23:13:54.023Z,24.10
2018-10-21T23:16:22.341Z,27.13
2018-10-21T23:18:50.691Z,25.20
2018-10-21T23:21:18.963Z,24.47
2018-10-21T23:23:47.379Z,27.17
2018-10-21T23:26:15.735Z,27.03
2018-10-21T23:28:44.011Z,23.93
2018-10-21T23:31:12.323Z,24.03
2018-10-21T23:33:40.626Z,25.33
2018-10-21T23:36:08.955Z,27.33
2018-10-21T23:38:37.360Z,21.80
2018-10-21T23:41:05.786Z,22.10
2018-10-21T23:43:34.080Z,23.50
2018-10-21T23:46:02.411Z,22.40
2018-10-21T23:48:31.774Z,20.90
2018-10-21T23:51:00.142Z,23.63
2018-10-21T23:53:28.408Z,21.67
2018-10-21T23:55:56.738Z,25.30
2018-10-21T23:58:25.094Z,21.17
